sensor_id;sensor_type;location;lat;lon;timestamp;temperature;humidity
20418;DHT22;10368;51.436;6.774;2023-04-23T13:06:34;10.70;99.90
20418;DHT22;10368;51.436;6.774;2023-04-23T13:09:01;22.30;71.70
20418;DHT22;10368;51.436;6.774;2023-04-23T13:11:33;22.20;70.10
20418;DHT22;10368;51.436;6.774;2023-04-23T13:14:00;21.40;70.30
20418;DHT22;10368;51.436;6.774;2023-04-23T13:16:26;21.50;70.80
20418;DHT22;10368;51.436;6.774;2023-04-23T13:18:54;20.80;72.20
20418;DHT22;10368;51.436;6.774;2023-04-23T13:21:21;21.30;71.90
20418;DHT22;10368;51.436;6.774;2023-04-23T13:23:48;21.00;71.00
20418;DHT22;10368;51.436;6.774;2023-04-23T13:26:15;21.70;69.90
20418;DHT22;10368;51.436;6.774;2023-04-23T13:28:42;21.70;67.40
20418;DHT22;10368;51.436;6.774;2023-04-23T13:31:09;21.30;68.00
20418;DHT22;10368;51.436;6.774;2023-04-23T13:33:39;20.90;69.10
20418;DHT22;10368;51.436;6.774;2023-04-23T13:36:07;20.60;70.90
20418;DHT22;10368;51.436;6.774;2023-04-23T13:38:34;20.50;69.50
20418;DHT22;10368;51.436;6.774;2023-04-23T13:41:01;20.30;70.40
20418;DHT22;10368;51.436;6.774;2023-04-23T13:43:28;20.40;68.70
20418;DHT22;10368;51.436;6.774;2023-04-23T13:45:54;20.30;69.00
20418;DHT22;10368;51.436;6.774;2023-04-23T13:48:21;20.30;70.30
20418;DHT22;10368;51.436;6.774;2023-04-23T13:50:49;20.30;69.00
20418;DHT22;10368;51.436;6.774;2023-04-23T13:53:15;20.10;69.20
20418;DHT22;10368;51.436;6.774;2023-04-23T13:55:42;19.70;70.60
20418;DHT22;10368;51.436;6.774;2023-04-23T13:58:09;19.70;71.50
20418;DHT22;10368;51.436;6.774;2023-04-23T14:00:38;19.90;70.30
20418;DHT22;10368;51.436;6.774;2023-04-23T14:03:04;19.60;72.20
20418;DHT22;10368;51.436;6.774;2023-04-23T14:05:31;19.70;72.30
20418;DHT22;10368;51.436;6.774;2023-04-23T14:07:58;19.40;73.20
20418;DHT22;10368;51.436;6.774;2023-04-23T14:10:25;19.40;74.00
20418;DHT22;10368;51.436;6.774;2023-04-23T14:12:52;19.40;73.90
20418;DHT22;10368;51.436;6.774;2023-04-23T14:15:20;19.30;74.30
20418;DHT22;10368;51.436;6.774;2023-04-23T14:17:47;19.30;73.20
20418;DHT22;10368;51.436;6.774;2023-04-23T14:20:13;19.30;72.90
20418;DHT22;10368;51.436;6.774;2023-04-23T14:22:41;19.40;72.60
20418;DHT22;10368;51.436;6.774;2023-04-23T14:25:13;19.30;73.00
20418;DHT22;10368;51.436;6.774;2023-04-23T14:27:44;19.30;74.00
20418;DHT22;10368;51.436;6.774;2023-04-23T14:30:18;19.20;73.40
20418;DHT22;10368;51.436;6.774;2023-04-23T14:32:45;19.00;74.60
20418;DHT22;10368;51.436;6.774;2023-04-23T14:35:15;19.00;76.00
20418;DHT22;10368;51.436;6.774;2023-04-23T14:37:42;19.10;73.80
20418;DHT22;10368;51.436;6.774;2023-04-23T14:40:11;19.10;74.10
20418;DHT22;10368;51.436;6.774;2023-04-23T14:42:41;19.00;74.10
20418;DHT22;10368;51.436;6.774;2023-04-23T14:45:08;18.80;74.50
20418;DHT22;10368;51.436;6.774;2023-04-23T14:47:35;18.80;75.00
20418;DHT22;10368;51.436;6.774;2023-04-23T14:50:02;18.70;74.60
20418;DHT22;10368;51.436;6.774;2023-04-23T14:52:29;18.60;75.00
20418;DHT22;10368;51.436;6.774;2023-04-23T14:54:57;18.60;74.10
20418;DHT22;10368;51.436;6.774;2023-04-23T14:57:23;18.50;74.10
20418;DHT22;10368;51.436;6.774;2023-04-23T14:59:50;18.40;74.30
20418;DHT22;10368;51.436;6.774;2023-04-23T15:02:17;18.40;74.40
20418;DHT22;10368;51.436;6.774;2023-04-23T15:04:44;18.40;74.00
20418;DHT22;10368;51.436;6.774;2023-04-23T15:07:11;18.50;74.20
20418;DHT22;10368;51.436;6.774;2023-04-23T15:09:38;18.40;73.10
20418;DHT22;10368;51.436;6.774;2023-04-23T15:15:20;18.30;73.00
20418;DHT22;10368;51.436;6.774;2023-04-23T15:18:03;18.10;72.60
20418;DHT22;10368;51.436;6.774;2023-04-23T15:20:30;18.10;72.70
20418;DHT22;10368;51.436;6.774;2023-04-23T15:22:57;18.10;72.90
20418;DHT22;10368;51.436;6.774;2023-04-23T15:25:24;17.90;73.00
20418;DHT22;10368;51.436;6.774;2023-04-23T15:27:51;17.90;74.10
20418;DHT22;10368;51.436;6.774;2023-04-23T15:30:24;17.70;77.60
20418;DHT22;10368;51.436;6.774;2023-04-23T15:32:54;17.40;81.70
20418;DHT22;10368;51.436;6.774;2023-04-23T15:35:22;17.30;82.10
20418;DHT22;10368;51.436;6.774;2023-04-23T15:37:49;17.10;88.70
20418;DHT22;10368;51.436;6.774;2023-04-23T15:40:16;16.90;90.80
20418;DHT22;10368;51.436;6.774;2023-04-23T15:42:43;16.80;92.80
20418;DHT22;10368;51.436;6.774;2023-04-23T15:45:11;16.80;95.60
20418;DHT22;10368;51.436;6.774;2023-04-23T15:47:38;16.60;95.20
20418;DHT22;10368;51.436;6.774;2023-04-23T15:50:05;16.50;96.70
20418;DHT22;10368;51.436;6.774;2023-04-23T15:52:32;16.40;99.90
